Time;durP1;ratioP1;P1;durP2;ratioP2;P2;SDS_P1;SDS_P2;PMS_P1;PMS_P2;Temp;Humidity;BMP_temperature;BMP_pressure;BME280_temperature;BME280_humidity;BME280_pressure;Samples;Min_cycle;Max_cycle;Signal;HPM_P1;HPM_P2
2021/03/27 00:00:20;;;;;;;4.60;1.30;;;8.40;99.90;;;;;;5045180;28;21496;-76
2021/03/27 00:02:51;;;;;;;8.93;1.67;;;8.40;99.90;;;;;;5041637;28;20971;-75
2021/03/27 00:05:21;;;;;;;5.40;1.30;;;8.30;99.90;;;;;;5045895;28;20437;-76
2021/03/27 00:08:09;;;;;;;5.75;1.15;;;8.40;99.90;;;;;;5027675;28;20432;-75
2021/03/27 00:10:41;;;;;;;8.05;1.50;;;8.40;99.90;;;;;;5027249;28;20418;-75
2021/03/27 00:13:21;;;;;;;4.90;1.15;;;8.40;99.90;;;;;;5041210;28;20421;-75
2021/03/27 00:15:55;;;;;;;7.28;1.10;;;8.40;99.90;;;;;;5025369;28;20425;-74
2021/03/27 00:18:28;;;;;;;7.75;1.40;;;8.40;99.90;;;;;;5044441;28;20435;-74
2021/03/27 00:21:01;;;;;;;6.00;1.20;;;8.50;99.90;;;;;;5028387;28;20839;-74
2021/03/27 00:23:35;;;;;;;8.45;1.40;;;8.50;99.90;;;;;;5025913;28;20504;-75
2021/03/27 00:26:06;;;;;;;6.13;1.40;;;8.50;99.90;;;;;;5040945;28;20793;-75
2021/03/27 00:28:38;;;;;;;8.02;1.55;;;8.50;99.90;;;;;;5044183;28;20963;-75
2021/03/27 00:31:10;;;;;;;7.60;1.70;;;8.50;99.90;;;;;;5044668;28;20425;-76
2021/03/27 00:33:40;;;;;;;9.47;1.87;;;8.50;99.90;;;;;;5043507;28;20427;-75
2021/03/27 00:36:11;;;;;;;8.50;2.00;;;8.50;99.90;;;;;;5028447;28;20429;-75
2021/03/27 00:38:41;;;;;;;8.93;2.08;;;8.50;99.90;;;;;;5042594;28;20425;-75
2021/03/27 00:41:12;;;;;;;9.80;2.20;;;8.50;99.90;;;;;;5043964;28;20961;-75
2021/03/27 00:43:44;;;;;;;8.73;2.08;;;8.50;99.90;;;;;;5048356;28;20417;-74
2021/03/27 00:46:13;;;;;;;7.07;2.00;;;8.50;99.90;;;;;;5046594;28;20416;-74
2021/03/27 00:48:45;;;;;;;10.47;2.30;;;8.50;99.90;;;;;;5033762;28;20535;-76
2021/03/27 00:51:14;;;;;;;7.70;2.10;;;8.50;99.90;;;;;;5033018;28;20959;-74
2021/03/27 00:53:48;;;;;;;8.77;2.20;;;8.50;99.90;;;;;;5033497;28;20782;-77
2021/03/27 00:56:18;;;;;;;8.02;2.17;;;8.50;99.90;;;;;;5031551;28;20425;-77
2021/03/27 00:58:50;;;;;;;8.90;2.00;;;8.50;99.90;;;;;;5032765;28;20435;-76
2021/03/27 01:01:19;;;;;;;8.95;2.10;;;8.50;99.90;;;;;;5032060;28;20430;-76
2021/03/27 01:04:15;;;;;;;10.93;2.58;;;8.50;99.90;;;;;;5048530;28;20480;-77
2021/03/27 01:07:02;;;;;;;9.75;2.33;;;8.60;99.90;;;;;;5047747;28;20428;-76
2021/03/27 01:09:57;;;;;;;10.68;2.10;;;8.50;99.90;;;;;;5016534;28;20991;-77
2021/03/27 01:12:44;;;;;;;11.95;2.20;;;8.60;99.90;;;;;;5046878;28;20578;-74
2021/03/27 01:15:14;;;;;;;10.20;1.70;;;8.60;99.90;;;;;;5030449;28;20986;-76
2021/03/27 01:17:45;;;;;;;13.45;2.22;;;8.60;99.90;;;;;;5031222;28;20520;-75
2021/03/27 01:20:16;;;;;;;13.43;1.90;;;8.60;99.90;;;;;;5027383;28;21202;-75
2021/03/27 01:22:46;;;;;;;13.75;1.90;;;8.60;99.90;;;;;;5047711;28;20436;-76
2021/03/27 01:25:19;;;;;;;14.83;2.10;;;8.60;99.90;;;;;;5047955;28;20437;-74
2021/03/27 01:27:52;;;;;;;14.05;2.03;;;8.50;99.90;;;;;;5033098;28;20444;-76
2021/03/27 01:30:28;;;;;;;13.50;2.05;;;8.50;99.90;;;;;;5047256;28;20421;-76
2021/03/27 01:32:57;;;;;;;14.13;1.90;;;8.50;99.90;;;;;;5030779;28;20429;-76
2021/03/27 01:35:31;;;;;;;13.45;2.13;;;8.50;99.90;;;;;;5047175;28;20440;-76
2021/03/27 01:38:07;;;;;;;20.77;2.10;;;8.50;99.90;;;;;;5028185;28;20438;-76
2021/03/27 01:40:41;;;;;;;13.93;2.15;;;8.50;99.90;;;;;;5046106;28;20429;-74
2021/03/27 01:43:24;;;;;;;14.68;2.35;;;8.40;99.90;;;;;;5045463;28;20433;-75
2021/03/27 01:46:15;;;;;;;9.10;1.75;;;8.40;99.90;;;;;;5047555;28;20546;-75
2021/03/27 01:48:56;;;;;;;14.70;2.13;;;8.40;99.90;;;;;;5033451;28;20437;-76
2021/03/27 01:51:34;;;;;;;14.38;2.40;;;8.40;99.90;;;;;;5046271;28;20421;-75
2021/03/27 01:54:05;;;;;;;17.40;2.47;;;8.40;99.90;;;;;;5045754;28;20465;-76
2021/03/27 01:56:41;;;;;;;20.55;2.60;;;8.40;99.90;;;;;;5048061;28;20425;-76
2021/03/27 01:59:13;;;;;;;16.45;2.70;;;8.40;99.90;;;;;;5046525;28;20470;-76
2021/03/27 02:01:44;;;;;;;13.93;2.80;;;8.40;99.90;;;;;;5049020;28;20428;-75
2021/03/27 02:04:15;;;;;;;17.40;2.73;;;8.40;99.90;;;;;;5029183;28;20413;-76
2021/03/27 02:06:46;;;;;;;21.55;3.00;;;8.40;99.90;;;;;;5028005;28;20425;-76
2021/03/27 02:09:19;;;;;;;17.90;2.83;;;8.40;99.90;;;;;;5044266;28;20824;-75
2021/03/27 02:11:59;;;;;;;16.80;2.35;;;8.40;99.90;;;;;;5046293;28;20432;-74
2021/03/27 02:14:32;;;;;;;20.00;2.47;;;8.40;99.90;;;;;;5045300;28;21027;-74
2021/03/27 02:17:04;;;;;;;24.17;2.67;;;8.50;99.90;;;;;;5047768;28;20881;-75
2021/03/27 02:19:58;;;;;;;14.85;2.20;;;8.40;99.90;;;;;;5045485;28;20429;-74
2021/03/27 02:22:27;;;;;;;22.00;2.65;;;8.50;99.90;;;;;;5047449;28;20425;-76
2021/03/27 02:25:45;;;;;;;15.93;2.65;;;8.50;99.90;;;;;;5046124;28;21268;-75
2021/03/27 02:28:24;;;;;;;15.93;2.17;;;8.50;99.90;;;;;;5041946;28;20436;-75
2021/03/27 02:30:55;;;;;;;20.52;2.70;;;8.60;99.90;;;;;;5047272;28;20430;-72
2021/03/27 02:33:37;;;;;;;17.00;2.30;;;8.60;99.90;;;;;;5029587;28;20429;-76
2021/03/27 02:36:30;;;;;;;21.43;2.60;;;8.60;99.90;;;;;;5045404;28;20432;-76
2021/03/27 02:39:08;;;;;;;15.93;2.30;;;8.70;99.50;;;;;;5042615;28;20421;-76
2021/03/27 02:41:45;;;;;;;17.50;2.45;;;8.60;99.00;;;;;;5043527;28;20965;-76
2021/03/27 02:44:20;;;;;;;14.75;2.63;;;8.60;98.60;;;;;;5028065;28;20416;-77
2021/03/27 02:46:52;;;;;;;18.58;2.80;;;8.60;98.40;;;;;;5045852;28;20436;-75
2021/03/27 02:49:29;;;;;;;15.20;2.30;;;8.60;98.10;;;;;;5044442;28;20421;-75
2021/03/27 02:52:03;;;;;;;12.98;2.38;;;8.60;97.70;;;;;;5028128;28;20577;-75
2021/03/27 02:54:39;;;;;;;21.67;2.80;;;8.60;97.50;;;;;;5028283;28;20425;-76
2021/03/27 02:57:13;;;;;;;14.07;2.80;;;8.60;97.10;;;;;;5029007;28;20796;-76
2021/03/27 02:59:48;;;;;;;19.20;2.80;;;8.60;97.30;;;;;;5045371;28;20421;-75
2021/03/27 03:02:20;;;;;;;22.60;2.90;;;8.70;98.30;;;;;;5030563;28;20763;-77
2021/03/27 03:04:56;;;;;;;19.90;3.13;;;8.70;99.20;;;;;;5044398;28;20428;-77
2021/03/27 03:07:31;;;;;;;17.13;2.80;;;8.70;98.90;;;;;;5045634;28;20428;-76
2021/03/27 03:10:08;;;;;;;21.05;3.15;;;8.60;98.80;;;;;;5032650;28;20532;-75
2021/03/27 03:12:40;;;;;;;15.07;3.20;;;8.50;98.50;;;;;;5045525;28;20456;-75
2021/03/27 03:15:21;;;;;;;20.73;2.75;;;8.50;98.70;;;;;;5044447;28;20480;-75
2021/03/27 03:17:56;;;;;;;18.73;2.80;;;8.50;99.00;;;;;;5038996;28;20916;-75
2021/03/27 03:20:29;;;;;;;20.95;3.10;;;8.50;99.00;;;;;;5046412;28;20431;-74
2021/03/27 03:23:04;;;;;;;22.92;3.78;;;8.50;99.10;;;;;;5025875;28;20430;-76
2021/03/27 03:25:33;;;;;;;22.23;3.23;;;8.50;99.20;;;;;;5045283;28;20429;-77
2021/03/27 03:28:24;;;;;;;22.42;3.20;;;8.60;99.20;;;;;;5027002;28;20479;-76
2021/03/27 03:31:08;;;;;;;16.27;2.83;;;8.60;99.50;;;;;;5042227;28;20802;-75
2021/03/27 03:34:07;;;;;;;21.20;3.43;;;8.60;99.10;;;;;;5026923;28;20434;-76
2021/03/27 03:36:48;;;;;;;23.20;3.50;;;8.60;98.50;;;;;;5024317;28;20499;-76
2021/03/27 03:39:30;;;;;;;21.08;3.30;;;8.60;98.20;;;;;;5029160;28;20778;-74
2021/03/27 03:42:02;;;;;;;14.70;3.00;;;8.60;97.80;;;;;;5045599;28;20420;-76
2021/03/27 03:44:49;;;;;;;16.20;3.15;;;8.60;97.70;;;;;;5044994;28;20433;-75
2021/03/27 03:47:23;;;;;;;20.23;3.20;;;8.60;97.60;;;;;;5043419;28;21305;-73
2021/03/27 03:50:14;;;;;;;18.83;3.20;;;8.60;97.30;;;;;;5044341;28;20917;-74
2021/03/27 03:53:00;;;;;;;21.67;3.03;;;8.70;97.10;;;;;;5026115;28;20987;-76
2021/03/27 03:55:37;;;;;;;18.38;3.00;;;8.70;96.90;;;;;;5040412;28;20555;-77
2021/03/27 03:58:32;;;;;;;21.63;3.28;;;8.70;96.60;;;;;;5025039;28;20425;-74
2021/03/27 04:01:09;;;;;;;17.98;2.70;;;8.70;96.50;;;;;;5046303;28;20425;-75
2021/03/27 04:03:50;;;;;;;17.30;2.65;;;8.70;96.30;;;;;;5042680;28;20440;-76
2021/03/27 04:06:22;;;;;;;20.60;3.25;;;8.70;96.00;;;;;;5030232;28;20429;-75
2021/03/27 04:08:56;;;;;;;21.30;2.92;;;8.70;95.90;;;;;;5042254;28;20441;-75
2021/03/27 04:11:53;;;;;;;23.63;3.38;;;8.70;95.80;;;;;;5029332;28;20747;-76
2021/03/27 04:14:48;;;;;;;21.73;3.17;;;8.70;96.20;;;;;;5015176;28;20483;-74
2021/03/27 04:17:23;;;;;;;20.40;3.25;;;8.70;95.80;;;;;;5027210;28;20437;-74
2021/03/27 04:19:56;;;;;;;17.55;3.40;;;8.70;96.00;;;;;;5043694;28;20778;-76
2021/03/27 04:22:32;;;;;;;20.27;3.80;;;8.70;95.90;;;;;;5026657;28;20429;-75
2021/03/27 04:25:23;;;;;;;22.27;3.28;;;8.60;95.90;;;;;;5023428;28;20431;-75
2021/03/27 04:27:55;;;;;;;20.23;3.30;;;8.60;95.90;;;;;;5028255;28;20419;-75
2021/03/27 04:30:31;;;;;;;17.50;3.05;;;8.60;95.70;;;;;;5045520;28;20505;-75
2021/03/27 04:33:09;;;;;;;18.33;3.13;;;8.60;95.60;;;;;;5043901;28;20436;-74
2021/03/27 04:35:55;;;;;;;19.95;3.15;;;8.70;95.80;;;;;;5045005;28;20424;-73
2021/03/27 04:38:32;;;;;;;18.85;3.53;;;8.70;95.30;;;;;;5025986;28;20429;-75
2021/03/27 04:41:07;;;;;;;23.30;3.17;;;8.70;95.30;;;;;;5027222;28;20437;-75
2021/03/27 04:43:40;;;;;;;17.42;2.97;;;8.60;95.20;;;;;;5044323;28;20429;-75
2021/03/27 04:46:13;;;;;;;19.23;3.92;;;8.60;95.20;;;;;;5045361;28;20424;-75
2021/03/27 04:48:44;;;;;;;20.98;3.03;;;8.60;95.30;;;;;;5027176;28;20917;-75
2021/03/27 04:51:48;;;;;;;20.30;3.08;;;8.70;95.50;;;;;;5046266;28;20809;-73
2021/03/27 04:54:55;;;;;;;17.25;2.92;;;8.60;94.40;;;;;;5043575;28;20425;-75
2021/03/27 04:57:38;;;;;;;15.45;2.38;;;8.60;93.20;;;;;;5024612;28;20424;-75
2021/03/27 05:00:25;;;;;;;13.25;2.35;;;8.60;91.10;;;;;;5027156;28;20459;-75
2021/03/27 05:03:02;;;;;;;18.65;2.60;;;8.60;90.90;;;;;;5041192;28;20429;-76
2021/03/27 05:05:33;;;;;;;14.77;2.15;;;8.50;90.10;;;;;;5045040;28;20436;-74
2021/03/27 05:08:08;;;;;;;13.73;2.42;;;8.50;89.70;;;;;;5042445;28;20455;-75
2021/03/27 05:10:40;;;;;;;16.88;2.50;;;8.50;89.10;;;;;;5028366;28;20421;-75
2021/03/27 05:13:22;;;;;;;13.80;2.50;;;8.50;88.90;;;;;;5023894;28;20417;-74
2021/03/27 05:15:52;;;;;;;17.50;2.55;;;8.40;88.00;;;;;;5029553;28;20428;-75
2021/03/27 05:18:36;;;;;;;13.65;2.42;;;8.40;87.80;;;;;;5044506;28;20424;-75
2021/03/27 05:21:13;;;;;;;17.65;2.97;;;8.40;88.10;;;;;;5028932;28;20499;-75
2021/03/27 05:23:49;;;;;;;18.60;2.92;;;8.40;88.30;;;;;;5040857;28;20433;-76
2021/03/27 05:26:30;;;;;;;15.93;2.78;;;8.40;88.60;;;;;;5043799;28;20441;-74
2021/03/27 05:29:16;;;;;;;14.98;2.78;;;8.40;87.80;;;;;;5040552;28;20477;-73
2021/03/27 05:31:53;;;;;;;18.45;3.03;;;8.40;88.50;;;;;;5047143;28;20436;-74
2021/03/27 05:34:30;;;;;;;18.50;2.72;;;8.40;87.70;;;;;;5047306;28;20487;-75
2021/03/27 05:37:18;;;;;;;16.50;2.83;;;8.40;87.80;;;;;;5028483;28;20812;-74
2021/03/27 05:39:53;;;;;;;21.50;3.10;;;8.30;88.00;;;;;;5047307;28;20421;-75
2021/03/27 05:43:04;;;;;;;16.67;2.90;;;8.30;88.90;;;;;;5047556;28;20425;-73
2021/03/27 05:46:27;;;;;;;18.30;2.67;;;8.30;87.90;;;;;;5036557;28;20429;-76
2021/03/27 05:49:25;;;;;;;20.63;2.90;;;8.30;87.20;;;;;;5042368;28;20432;-75
2021/03/27 05:52:25;;;;;;;16.50;2.92;;;8.20;87.00;;;;;;5048085;28;20956;-75
2021/03/27 05:55:25;;;;;;;19.38;2.95;;;8.20;87.00;;;;;;5043781;28;20495;-75
2021/03/27 05:58:30;;;;;;;19.35;2.80;;;8.20;87.40;;;;;;5043449;28;20437;-75
2021/03/27 06:01:08;;;;;;;19.33;2.88;;;8.20;88.50;;;;;;5030417;28;20417;-75
2021/03/27 06:04:05;;;;;;;14.30;2.63;;;8.10;89.30;;;;;;5042614;28;20421;-74
2021/03/27 06:06:46;;;;;;;16.20;3.38;;;8.10;89.40;;;;;;5043499;28;20489;-74
2021/03/27 06:09:40;;;;;;;18.20;2.92;;;8.10;89.60;;;;;;5044114;28;20498;-73
2021/03/27 06:12:33;;;;;;;13.57;2.57;;;8.20;89.50;;;;;;5046668;28;20443;-75
2021/03/27 06:15:25;;;;;;;14.43;2.78;;;8.20;89.70;;;;;;5047819;28;20484;-77
2021/03/27 06:18:21;;;;;;;18.98;2.88;;;8.30;89.80;;;;;;5018126;28;20483;-75
2021/03/27 06:21:04;;;;;;;14.23;2.90;;;8.40;90.20;;;;;;5044442;28;20431;-73
2021/03/27 06:23:58;;;;;;;18.02;3.15;;;8.40;90.40;;;;;;5028973;28;20436;-75
2021/03/27 06:26:48;;;;;;;19.95;3.33;;;8.40;90.10;;;;;;5046806;28;20479;-75
2021/03/27 06:30:04;;;;;;;21.15;3.58;;;8.30;90.00;;;;;;5046224;28;21195;-73
2021/03/27 06:33:19;;;;;;;17.77;3.10;;;8.30;90.30;;;;;;5028217;28;20433;-74
2021/03/27 06:36:18;;;;;;;24.95;3.65;;;8.30;90.50;;;;;;5047574;28;20531;-75
2021/03/27 06:39:19;;;;;;;21.50;3.30;;;8.40;90.40;;;;;;5038907;28;20465;-73
2021/03/27 06:42:35;;;;;;;23.40;3.28;;;8.40;90.20;;;;;;5045689;28;20501;-74
2021/03/27 06:45:28;;;;;;;24.20;3.40;;;8.50;90.10;;;;;;5030046;28;20444;-75
2021/03/27 06:48:34;;;;;;;17.48;3.20;;;8.50;89.60;;;;;;5040905;28;20998;-75
2021/03/27 06:51:36;;;;;;;22.13;3.38;;;8.50;88.40;;;;;;5046649;28;20433;-73
2021/03/27 06:54:44;;;;;;;18.85;3.50;;;8.60;88.40;;;;;;5042556;28;20442;-76
2021/03/27 06:57:33;;;;;;;17.23;2.95;;;8.60;89.40;;;;;;5046741;28;20429;-75
2021/03/27 07:00:45;;;;;;;17.90;3.00;;;8.70;89.70;;;;;;5045897;28;20512;-75
2021/03/27 07:03:53;;;;;;;19.55;3.42;;;8.70;87.80;;;;;;5027674;28;20846;-75
2021/03/27 07:06:56;;;;;;;18.85;3.45;;;8.70;88.20;;;;;;5021241;28;20836;-77
2021/03/27 07:10:07;;;;;;;21.27;3.50;;;8.80;87.50;;;;;;5044099;28;20444;-77
2021/03/27 07:12:53;;;;;;;23.30;3.53;;;8.80;88.50;;;;;;5026296;28;20432;-76
2021/03/27 07:15:48;;;;;;;20.77;3.40;;;8.80;89.10;;;;;;5043569;28;20429;-76
2021/03/27 07:18:41;;;;;;;21.13;3.50;;;8.80;88.90;;;;;;5044577;28;20496;-75
2021/03/27 07:21:37;;;;;;;25.70;3.63;;;8.80;89.40;;;;;;5046409;28;20483;-75
2021/03/27 07:24:22;;;;;;;22.17;3.78;;;8.80;90.20;;;;;;5042638;28;20514;-75
2021/03/27 07:27:16;;;;;;;19.37;3.50;;;8.80;90.50;;;;;;5044269;28;20436;-75
2021/03/27 07:29:58;;;;;;;18.30;3.65;;;8.80;90.40;;;;;;5039449;28;20436;-74
2021/03/27 07:32:46;;;;;;;23.45;3.22;;;8.80;90.60;;;;;;5026582;28;20475;-74
2021/03/27 07:35:31;;;;;;;22.85;3.30;;;8.80;90.60;;;;;;5027360;28;20491;-75
2021/03/27 07:38:30;;;;;;;19.38;3.55;;;8.70;90.40;;;;;;5042057;28;20438;-75
2021/03/27 07:41:05;;;;;;;19.33;3.15;;;8.60;90.40;;;;;;5047921;28;20413;-76
2021/03/27 07:44:10;;;;;;;22.17;3.42;;;8.60;90.40;;;;;;5046308;28;20551;-75
2021/03/27 07:47:14;;;;;;;14.68;3.10;;;8.60;90.00;;;;;;5046279;28;20425;-75
2021/03/27 07:50:14;;;;;;;18.08;3.15;;;8.60;89.40;;;;;;5045953;28;20852;-75
2021/03/27 07:52:53;;;;;;;18.23;3.00;;;8.60;88.30;;;;;;5043635;28;20483;-74
2021/03/27 07:56:12;;;;;;;23.15;3.50;;;8.60;88.40;;;;;;5043315;28;20428;-75
2021/03/27 07:59:30;;;;;;;19.75;3.53;;;8.60;88.10;;;;;;5040132;28;20441;-76
2021/03/27 08:02:09;;;;;;;20.33;3.28;;;8.60;88.90;;;;;;5041461;28;20910;-75
2021/03/27 08:05:16;;;;;;;18.23;2.95;;;8.60;88.90;;;;;;5038390;28;20912;-75
2021/03/27 08:08:11;;;;;;;19.60;2.95;;;8.60;87.30;;;;;;5015036;28;20491;-76
2021/03/27 08:11:05;;;;;;;16.83;3.28;;;8.60;86.20;;;;;;5044495;28;20436;-76
2021/03/27 08:13:56;;;;;;;16.55;2.90;;;8.70;86.10;;;;;;5043045;28;20424;-75
2021/03/27 08:16:45;;;;;;;18.77;3.05;;;8.70;86.30;;;;;;5024018;28;20440;-75
2021/03/27 08:19:44;;;;;;;17.92;3.40;;;8.80;85.70;;;;;;5037888;28;20452;-73
2021/03/27 08:22:49;;;;;;;18.37;2.97;;;8.90;86.20;;;;;;5044181;28;20429;-75
2021/03/27 08:25:20;;;;;;;20.40;3.20;;;8.90;86.50;;;;;;5044300;28;20429;-73
2021/03/27 08:28:34;;;;;;;14.75;2.60;;;9.00;87.10;;;;;;5023982;28;21051;-76
2021/03/27 08:31:31;;;;;;;16.98;3.35;;;9.00;85.80;;;;;;5005394;28;20912;-75
2021/03/27 08:34:23;;;;;;;21.27;3.33;;;9.00;84.00;;;;;;5042331;28;20428;-76
2021/03/27 08:37:16;;;;;;;15.63;3.08;;;8.90;84.00;;;;;;5041818;28;20496;-76
2021/03/27 08:40:14;;;;;;;17.27;2.75;;;8.80;83.90;;;;;;5043487;28;20448;-75
2021/03/27 08:43:17;;;;;;;14.90;2.97;;;8.80;84.80;;;;;;5042631;28;20437;-75
2021/03/27 08:46:16;;;;;;;15.30;2.88;;;8.80;85.10;;;;;;5038607;28;20433;-76
2021/03/27 08:49:16;;;;;;;20.48;3.10;;;8.90;84.80;;;;;;5043154;28;20429;-76
2021/03/27 08:51:59;;;;;;;18.30;2.70;;;8.90;85.20;;;;;;5041740;28;20429;-74
2021/03/27 08:55:01;;;;;;;12.70;2.65;;;9.00;84.60;;;;;;5021403;28;20421;-74
2021/03/27 08:57:53;;;;;;;15.38;2.70;;;9.00;83.50;;;;;;5041986;28;20444;-75
2021/03/27 09:00:56;;;;;;;14.15;2.53;;;9.00;82.80;;;;;;5043187;28;20833;-75
2021/03/27 09:03:46;;;;;;;13.82;2.45;;;9.10;82.10;;;;;;5044314;28;20432;-76
2021/03/27 09:06:31;;;;;;;16.52;2.90;;;9.10;82.10;;;;;;5046242;28;20835;-76
2021/03/27 09:09:18;;;;;;;16.25;2.45;;;9.10;82.60;;;;;;5045266;28;20433;-76
2021/03/27 09:12:03;;;;;;;18.13;2.97;;;9.20;82.90;;;;;;5047609;28;20515;-76
2021/03/27 09:14:43;;;;;;;16.20;3.03;;;9.20;82.60;;;;;;5047523;28;20425;-76
2021/03/27 09:17:27;;;;;;;17.38;2.83;;;9.30;82.30;;;;;;5046689;28;20413;-75
2021/03/27 09:20:05;;;;;;;17.00;3.37;;;9.30;83.20;;;;;;5043703;28;20438;-74
2021/03/27 09:22:59;;;;;;;14.88;2.67;;;9.30;82.50;;;;;;5045892;28;20433;-75
2021/03/27 09:25:49;;;;;;;18.00;3.00;;;9.30;82.00;;;;;;5043638;28;20437;-74
2021/03/27 09:28:28;;;;;;;17.42;2.65;;;9.30;81.70;;;;;;5044287;28;20443;-75
2021/03/27 09:31:31;;;;;;;20.88;3.10;;;9.30;82.20;;;;;;5045720;28;20432;-76
2021/03/27 09:34:04;;;;;;;17.17;2.73;;;9.20;82.30;;;;;;5009451;28;20433;-75
2021/03/27 09:36:41;;;;;;;18.15;2.95;;;9.20;82.00;;;;;;5046753;28;20774;-76
2021/03/27 09:39:20;;;;;;;16.00;2.72;;;9.20;82.00;;;;;;5044693;28;20787;-76
2021/03/27 09:42:08;;;;;;;15.35;2.95;;;9.30;81.90;;;;;;5046061;28;20789;-74
2021/03/27 09:44:58;;;;;;;18.58;2.90;;;9.30;81.50;;;;;;5046946;28;20447;-76
2021/03/27 09:47:48;;;;;;;18.07;2.80;;;9.30;81.60;;;;;;5048318;28;20433;-76
2021/03/27 09:50:20;;;;;;;15.77;3.05;;;9.30;82.00;;;;;;5045484;28;20989;-76
2021/03/27 09:52:55;;;;;;;18.50;3.03;;;9.30;82.00;;;;;;5044512;28;20802;-76
2021/03/27 09:55:55;;;;;;;14.50;2.72;;;9.40;81.60;;;;;;5046590;28;20941;-76
2021/03/27 09:58:43;;;;;;;19.10;2.85;;;9.40;80.30;;;;;;5027638;28;20935;-77
2021/03/27 10:01:24;;;;;;;19.45;3.10;;;9.50;81.20;;;;;;5044852;28;20449;-77
2021/03/27 10:04:03;;;;;;;20.60;2.80;;;9.60;81.40;;;;;;5043906;28;20487;-77
2021/03/27 10:06:51;;;;;;;18.65;2.92;;;9.60;80.70;;;;;;5030152;28;20429;-76
2021/03/27 10:09:33;;;;;;;19.73;2.63;;;9.60;81.00;;;;;;5046624;28;20424;-76
2021/03/27 10:12:06;;;;;;;20.67;3.13;;;9.60;80.60;;;;;;5048600;28;20433;-76
2021/03/27 10:14:37;;;;;;;19.42;3.05;;;9.70;80.90;;;;;;5045258;28;20521;-75
2021/03/27 10:17:17;;;;;;;19.25;2.85;;;9.70;81.60;;;;;;5047730;28;20436;-78
2021/03/27 10:19:54;;;;;;;18.92;3.10;;;9.70;81.40;;;;;;5029044;28;20432;-76
2021/03/27 10:22:31;;;;;;;22.10;3.00;;;9.80;81.30;;;;;;5028397;28;20421;-75
2021/03/27 10:25:04;;;;;;;16.02;2.67;;;9.80;80.80;;;;;;5046684;28;20892;-75
2021/03/27 10:27:42;;;;;;;25.02;3.00;;;9.80;80.30;;;;;;5029995;28;20880;-75
2021/03/27 10:30:20;;;;;;;17.33;3.33;;;9.80;81.30;;;;;;5046043;28;20497;-75
2021/03/27 10:32:57;;;;;;;23.37;3.40;;;9.80;80.70;;;;;;5044377;28;22612;-75
2021/03/27 10:35:43;;;;;;;20.42;3.30;;;9.80;79.80;;;;;;5044119;28;20437;-76
2021/03/27 10:38:25;;;;;;;18.02;3.15;;;9.80;80.10;;;;;;5034279;28;20437;-77
2021/03/27 10:40:58;;;;;;;22.38;3.40;;;9.80;80.70;;;;;;5045785;28;20433;-75
2021/03/27 10:43:37;;;;;;;18.50;3.47;;;9.70;80.80;;;;;;5044463;28;20420;-76
2021/03/27 10:46:21;;;;;;;18.67;3.72;;;9.80;81.10;;;;;;5041531;28;20492;-76
2021/03/27 10:49:11;;;;;;;17.25;3.50;;;9.70;80.80;;;;;;5042924;28;20912;-77
2021/03/27 10:52:12;;;;;;;20.20;3.13;;;9.70;81.50;;;;;;5045601;28;20432;-76
2021/03/27 10:55:06;;;;;;;21.70;3.47;;;9.60;82.30;;;;;;5041116;28;20436;-76
2021/03/27 10:58:11;;;;;;;17.40;3.20;;;9.50;82.50;;;;;;5028278;28;20487;-76
2021/03/27 11:01:06;;;;;;;21.52;3.10;;;9.50;83.60;;;;;;5040682;28;20428;-74
2021/03/27 11:04:03;;;;;;;24.95;3.58;;;9.50;83.90;;;;;;5025377;28;20438;-75
2021/03/27 11:06:52;;;;;;;22.73;3.47;;;9.50;83.80;;;;;;5026548;28;20429;-75
2021/03/27 11:09:58;;;;;;;29.27;3.73;;;9.60;83.90;;;;;;5026579;28;20429;-75
2021/03/27 11:12:44;;;;;;;21.35;3.15;;;9.70;84.30;;;;;;5042624;28;20440;-76
2021/03/27 11:15:24;;;;;;;19.33;2.78;;;9.70;82.80;;;;;;5046271;28;20436;-74
2021/03/27 11:18:16;;;;;;;22.65;3.45;;;9.70;82.50;;;;;;5031155;28;20436;-75
2021/03/27 11:21:07;;;;;;;18.67;3.50;;;9.60;82.30;;;;;;5041918;28;20447;-74
2021/03/27 11:24:05;;;;;;;19.83;3.13;;;9.70;83.40;;;;;;5028746;28;20425;-73
2021/03/27 11:27:13;;;;;;;19.27;3.55;;;9.70;84.00;;;;;;5024810;28;20926;-75
2021/03/27 11:29:42;;;;;;;24.20;3.45;;;9.70;83.90;;;;;;5044438;28;20433;-76
2021/03/27 11:32:24;;;;;;;22.93;3.33;;;9.80;82.90;;;;;;5045468;28;20432;-77
2021/03/27 11:34:58;;;;;;;21.73;3.40;;;9.80;82.80;;;;;;5044110;28;20429;-75
2021/03/27 11:37:41;;;;;;;19.98;3.60;;;9.80;81.90;;;;;;5044989;28;20456;-76
2021/03/27 11:40:21;;;;;;;16.88;3.40;;;9.90;82.00;;;;;;5040215;28;20421;-76
2021/03/27 11:42:59;;;;;;;18.83;3.22;;;9.90;81.40;;;;;;5044440;28;20429;-75
2021/03/27 11:45:32;;;;;;;19.40;3.47;;;10.00;81.80;;;;;;5038839;28;20479;-76
2021/03/27 11:48:03;;;;;;;23.58;3.60;;;10.10;81.50;;;;;;5045699;28;20437;-76
2021/03/27 11:50:45;;;;;;;23.58;3.65;;;10.20;81.50;;;;;;5040625;28;20975;-76
2021/03/27 11:53:34;;;;;;;21.85;3.90;;;10.30;81.40;;;;;;5044425;28;20447;-76
2021/03/27 11:56:08;;;;;;;18.15;3.45;;;10.50;80.80;;;;;;5040386;28;20446;-76
2021/03/27 12:01:30;;;;;;;19.65;3.63;;;10.70;78.60;;;;;;5041675;28;20425;-77
2021/03/27 12:04:19;;;;;;;19.70;3.20;;;10.60;77.50;;;;;;5045855;28;20482;-76
2021/03/27 12:07:02;;;;;;;22.35;3.15;;;10.50;78.20;;;;;;5043832;28;20990;-77
2021/03/27 12:09:43;;;;;;;19.45;3.25;;;10.50;78.60;;;;;;5040467;28;20425;-78
2021/03/27 12:12:30;;;;;;;20.73;3.53;;;10.60;77.60;;;;;;5044622;28;20439;-75
2021/03/27 12:15:03;;;;;;;19.55;3.30;;;10.50;77.30;;;;;;5038044;28;20429;-76
2021/03/27 12:17:44;;;;;;;24.17;3.40;;;10.50;77.10;;;;;;5044242;28;20425;-76
2021/03/27 12:20:34;;;;;;;20.85;3.88;;;10.50;77.30;;;;;;5024696;28;20543;-77
2021/03/27 12:23:27;;;;;;;18.03;3.70;;;10.50;77.60;;;;;;5040248;28;20437;-77
2021/03/27 12:26:16;;;;;;;19.85;3.20;;;10.70;78.30;;;;;;5038729;28;20434;-76
2021/03/27 12:28:50;;;;;;;23.23;3.80;;;11.00;77.20;;;;;;5023658;28;20925;-78
2021/03/27 12:31:36;;;;;;;23.52;3.58;;;11.10;75.80;;;;;;5044224;28;20913;-76
2021/03/27 12:34:11;;;;;;;21.40;3.55;;;11.20;75.50;;;;;;5044810;28;20526;-77
2021/03/27 12:36:44;;;;;;;18.15;3.40;;;11.20;75.90;;;;;;5043037;28;20425;-78
2021/03/27 12:39:24;;;;;;;22.48;3.28;;;11.10;76.40;;;;;;5035803;28;20448;-76
2021/03/27 12:42:03;;;;;;;17.52;3.40;;;11.10;76.40;;;;;;5047976;28;20431;-76
2021/03/27 12:44:32;;;;;;;22.70;3.30;;;11.20;76.70;;;;;;5043548;28;20418;-77
2021/03/27 12:47:18;;;;;;;20.00;3.40;;;11.30;75.90;;;;;;5046831;28;20922;-75
2021/03/27 12:50:12;;;;;;;21.33;3.58;;;11.50;76.00;;;;;;5046953;28;20435;-77
2021/03/27 12:53:14;;;;;;;25.58;3.90;;;11.50;74.80;;;;;;5046560;28;21341;-76
2021/03/27 12:55:44;;;;;;;19.45;3.78;;;11.50;74.90;;;;;;5045445;28;20916;-75
2021/03/27 12:58:45;;;;;;;19.90;3.63;;;11.50;74.30;;;;;;5048590;28;20486;-76
2021/03/27 13:01:32;;;;;;;21.58;3.70;;;11.50;74.00;;;;;;5029383;28;20583;-76
2021/03/27 13:04:21;;;;;;;18.83;3.63;;;11.50;73.80;;;;;;5047240;28;20451;-76
2021/03/27 13:07:01;;;;;;;18.83;3.57;;;11.50;72.60;;;;;;5046983;28;20514;-75
2021/03/27 13:10:10;;;;;;;20.10;3.63;;;11.60;73.30;;;;;;5027318;28;20845;-74
2021/03/27 13:12:44;;;;;;;19.10;3.50;;;11.80;72.80;;;;;;5047789;28;20501;-75
2021/03/27 13:15:38;;;;;;;20.27;3.70;;;12.10;71.50;;;;;;5047829;28;20425;-76
2021/03/27 13:18:49;;;;;;;20.50;3.40;;;12.30;70.50;;;;;;5047212;28;20448;-76
2021/03/27 13:21:38;;;;;;;22.65;3.65;;;12.50;69.70;;;;;;5031089;28;20439;-75
2021/03/27 13:24:12;;;;;;;20.83;4.07;;;12.60;67.90;;;;;;5048775;28;20440;-76
2021/03/27 13:26:41;;;;;;;22.33;3.80;;;12.70;67.00;;;;;;5047643;28;20476;-77
2021/03/27 13:29:32;;;;;;;21.10;3.63;;;12.70;66.30;;;;;;5050114;28;20513;-77
2021/03/27 13:32:08;;;;;;;19.23;3.90;;;12.80;66.80;;;;;;5051255;28;20785;-76
2021/03/27 13:34:39;;;;;;;19.05;3.35;;;12.90;67.00;;;;;;5026774;28;20475;-75
2021/03/27 13:37:12;;;;;;;17.23;3.72;;;13.00;65.20;;;;;;5041414;28;20433;-76
2021/03/27 13:39:41;;;;;;;23.63;3.65;;;13.00;63.80;;;;;;5046880;28;21320;-75
2021/03/27 13:42:34;;;;;;;19.63;3.70;;;12.80;64.20;;;;;;5038318;28;20425;-75
2021/03/27 13:45:15;;;;;;;23.60;3.57;;;12.70;65.20;;;;;;5046063;28;20433;-75
2021/03/27 13:47:46;;;;;;;19.20;3.53;;;12.80;65.70;;;;;;5046146;28;20833;-77
2021/03/27 13:50:25;;;;;;;19.10;3.30;;;12.80;65.90;;;;;;5045195;28;20429;-77
2021/03/27 13:53:09;;;;;;;20.75;3.58;;;12.90;65.60;;;;;;5042588;28;20491;-76
2021/03/27 13:55:42;;;;;;;21.35;3.70;;;12.90;65.20;;;;;;5044479;28;20743;-76
2021/03/27 13:58:19;;;;;;;21.07;4.20;;;12.90;65.70;;;;;;5047749;28;20436;-77
2021/03/27 14:00:54;;;;;;;21.05;3.78;;;13.00;65.10;;;;;;5043788;28;20421;-76
2021/03/27 14:03:40;;;;;;;19.23;3.70;;;13.00;65.60;;;;;;5045224;28;20798;-76
2021/03/27 14:06:21;;;;;;;21.52;3.58;;;13.20;65.30;;;;;;5041670;28;20454;-76
2021/03/27 14:09:26;;;;;;;19.52;3.55;;;13.30;63.90;;;;;;5039681;28;20468;-76
2021/03/27 14:11:58;;;;;;;20.55;3.83;;;13.20;63.80;;;;;;5038195;28;20436;-75
2021/03/27 14:14:31;;;;;;;19.48;3.63;;;13.10;64.90;;;;;;5041576;28;20423;-75